sensor_id;sensor_type;location;lat;lon;timestamp;P1;durP1;ratioP1;P2;durP2;ratioP2
24411;SDS011;12544;46.760;15.942;2024-03-25T00:01:18;3.42;;;2.80;;
24411;SDS011;12544;46.760;15.942;2024-03-25T00:03:43;4.40;;;3.30;;
24411;SDS011;12544;46.760;15.942;2024-03-25T00:06:09;4.13;;;3.40;;
24411;SDS011;12544;46.760;15.942;2024-03-25T00:08:35;3.50;;;3.20;;
24411;SDS011;12544;46.760;15.942;2024-03-25T00:11:01;3.38;;;3.05;;
24411;SDS011;12544;46.760;15.942;2024-03-25T00:13:27;3.42;;;2.80;;
24411;SDS011;12544;46.760;15.942;2024-03-25T00:15:53;3.17;;;2.83;;
24411;SDS011;12544;46.760;15.942;2024-03-25T00:18:18;4.07;;;3.60;;
24411;SDS011;12544;46.760;15.942;2024-03-25T00:20:44;4.95;;;3.30;;
24411;SDS011;12544;46.760;15.942;2024-03-25T00:23:09;3.88;;;3.17;;
24411;SDS011;12544;46.760;15.942;2024-03-25T00:25:36;3.45;;;2.85;;
24411;SDS011;12544;46.760;15.942;2024-03-25T00:28:02;4.18;;;3.45;;
24411;SDS011;12544;46.760;15.942;2024-03-25T00:30:29;4.47;;;3.03;;
24411;SDS011;12544;46.760;15.942;2024-03-25T00:32:55;4.07;;;3.50;;
24411;SDS011;12544;46.760;15.942;2024-03-25T00:35:20;3.88;;;3.55;;
24411;SDS011;12544;46.760;15.942;2024-03-25T00:37:46;3.55;;;2.65;;
24411;SDS011;12544;46.760;15.942;2024-03-25T00:40:11;3.67;;;3.22;;
24411;SDS011;12544;46.760;15.942;2024-03-25T00:42:37;3.30;;;3.00;;
24411;SDS011;12544;46.760;15.942;2024-03-25T00:45:03;4.60;;;3.97;;
24411;SDS011;12544;46.760;15.942;2024-03-25T00:47:30;4.35;;;3.38;;
24411;SDS011;12544;46.760;15.942;2024-03-25T00:49:57;5.20;;;3.97;;
24411;SDS011;12544;46.760;15.942;2024-03-25T00:52:22;4.78;;;3.80;;
24411;SDS011;12544;46.760;15.942;2024-03-25T00:54:48;4.68;;;3.65;;
24411;SDS011;12544;46.760;15.942;2024-03-25T00:57:13;5.57;;;4.32;;
24411;SDS011;12544;46.760;15.942;2024-03-25T00:59:39;4.05;;;3.13;;
24411;SDS011;12544;46.760;15.942;2024-03-25T01:02:05;5.15;;;3.90;;
24411;SDS011;12544;46.760;15.942;2024-03-25T01:04:30;4.13;;;3.70;;
24411;SDS011;12544;46.760;15.942;2024-03-25T01:06:57;4.07;;;3.22;;
24411;SDS011;12544;46.760;15.942;2024-03-25T01:09:23;3.63;;;3.33;;
24411;SDS011;12544;46.760;15.942;2024-03-25T01:11:50;6.10;;;3.38;;
24411;SDS011;12544;46.760;15.942;2024-03-25T01:14:16;4.93;;;3.70;;
24411;SDS011;12544;46.760;15.942;2024-03-25T01:16:41;4.40;;;3.42;;
24411;SDS011;12544;46.760;15.942;2024-03-25T01:19:07;4.63;;;3.78;;
24411;SDS011;12544;46.760;15.942;2024-03-25T01:21:33;4.28;;;3.80;;
24411;SDS011;12544;46.760;15.942;2024-03-25T01:23:59;5.82;;;4.30;;
24411;SDS011;12544;46.760;15.942;2024-03-25T01:26:26;6.53;;;4.15;;
24411;SDS011;12544;46.760;15.942;2024-03-25T01:28:52;4.32;;;3.92;;
24411;SDS011;12544;46.760;15.942;2024-03-25T01:31:18;5.82;;;4.25;;
24411;SDS011;12544;46.760;15.942;2024-03-25T01:33:44;5.03;;;3.85;;
24411;SDS011;12544;46.760;15.942;2024-03-25T01:36:17;4.78;;;3.25;;
24411;SDS011;12544;46.760;15.942;2024-03-25T01:38:44;5.22;;;4.05;;
24411;SDS011;12544;46.760;15.942;2024-03-25T01:41:10;5.57;;;4.20;;
24411;SDS011;12544;46.760;15.942;2024-03-25T01:43:37;4.32;;;3.63;;
24411;SDS011;12544;46.760;15.942;2024-03-25T01:46:04;5.20;;;3.95;;
24411;SDS011;12544;46.760;15.942;2024-03-25T01:48:30;6.45;;;3.78;;
24411;SDS011;12544;46.760;15.942;2024-03-25T01:51:04;4.03;;;3.63;;
24411;SDS011;12544;46.760;15.942;2024-03-25T01:53:30;5.10;;;3.75;;
24411;SDS011;12544;46.760;15.942;2024-03-25T01:55:56;4.60;;;4.10;;
24411;SDS011;12544;46.760;15.942;2024-03-25T01:58:24;5.70;;;4.32;;
24411;SDS011;12544;46.760;15.942;2024-03-25T02:00:51;5.03;;;4.20;;
24411;SDS011;12544;46.760;15.942;2024-03-25T02:03:17;5.45;;;3.80;;
24411;SDS011;12544;46.760;15.942;2024-03-25T02:09:02;4.65;;;3.88;;
24411;SDS011;12544;46.760;15.942;2024-03-25T02:11:29;4.90;;;4.13;;
24411;SDS011;12544;46.760;15.942;2024-03-25T02:13:55;6.07;;;4.68;;
24411;SDS011;12544;46.760;15.942;2024-03-25T02:16:21;4.18;;;3.78;;
24411;SDS011;12544;46.760;15.942;2024-03-25T02:18:46;3.78;;;3.25;;
24411;SDS011;12544;46.760;15.942;2024-03-25T02:21:12;4.25;;;3.30;;
24411;SDS011;12544;46.760;15.942;2024-03-25T02:23:39;4.10;;;3.70;;
24411;SDS011;12544;46.760;15.942;2024-03-25T02:26:06;4.28;;;3.50;;
24411;SDS011;12544;46.760;15.942;2024-03-25T02:28:32;4.38;;;3.88;;
24411;SDS011;12544;46.760;15.942;2024-03-25T02:30:58;4.63;;;4.18;;
24411;SDS011;12544;46.760;15.942;2024-03-25T02:33:23;6.10;;;5.47;;
24411;SDS011;12544;46.760;15.942;2024-03-25T02:35:49;4.88;;;4.43;;
24411;SDS011;12544;46.760;15.942;2024-03-25T02:38:14;4.53;;;4.05;;
24411;SDS011;12544;46.760;15.942;2024-03-25T02:40:42;5.47;;;4.97;;
24411;SDS011;12544;46.760;15.942;2024-03-25T02:43:10;6.63;;;4.47;;
24411;SDS011;12544;46.760;15.942;2024-03-25T02:45:36;4.38;;;3.88;;
24411;SDS011;12544;46.760;15.942;2024-03-25T02:48:02;6.70;;;5.93;;
24411;SDS011;12544;46.760;15.942;2024-03-25T02:50:27;5.43;;;4.45;;
24411;SDS011;12544;46.760;15.942;2024-03-25T02:52:53;5.30;;;4.43;;
24411;SDS011;12544;46.760;15.942;2024-03-25T02:55:19;5.40;;;4.88;;
24411;SDS011;12544;46.760;15.942;2024-03-25T02:57:44;6.53;;;4.72;;
24411;SDS011;12544;46.760;15.942;2024-03-25T03:00:10;3.63;;;3.30;;
24411;SDS011;12544;46.760;15.942;2024-03-25T03:02:36;3.42;;;3.13;;
24411;SDS011;12544;46.760;15.942;2024-03-25T03:05:02;4.82;;;3.50;;
24411;SDS011;12544;46.760;15.942;2024-03-25T03:07:29;5.78;;;3.20;;
24411;SDS011;12544;46.760;15.942;2024-03-25T03:09:54;3.75;;;3.03;;
24411;SDS011;12544;46.760;15.942;2024-03-25T03:12:20;3.63;;;2.40;;
24411;SDS011;12544;46.760;15.942;2024-03-25T03:14:45;5.85;;;2.70;;
24411;SDS011;12544;46.760;15.942;2024-03-25T03:17:11;3.42;;;2.50;;
24411;SDS011;12544;46.760;15.942;2024-03-25T03:19:37;6.53;;;2.70;;
24411;SDS011;12544;46.760;15.942;2024-03-25T03:22:02;3.33;;;2.80;;
24411;SDS011;12544;46.760;15.942;2024-03-25T03:24:28;4.13;;;1.88;;
24411;SDS011;12544;46.760;15.942;2024-03-25T03:26:54;3.75;;;2.15;;
24411;SDS011;12544;46.760;15.942;2024-03-25T03:29:19;3.05;;;2.20;;
24411;SDS011;12544;46.760;15.942;2024-03-25T03:31:45;4.00;;;2.15;;
24411;SDS011;12544;46.760;15.942;2024-03-25T03:34:10;3.88;;;2.20;;
24411;SDS011;12544;46.760;15.942;2024-03-25T03:36:36;5.18;;;2.33;;
24411;SDS011;12544;46.760;15.942;2024-03-25T03:39:02;3.33;;;2.13;;
24411;SDS011;12544;46.760;15.942;2024-03-25T03:41:28;3.08;;;2.03;;
24411;SDS011;12544;46.760;15.942;2024-03-25T03:43:54;3.45;;;2.30;;
24411;SDS011;12544;46.760;15.942;2024-03-25T03:46:19;3.80;;;1.70;;
24411;SDS011;12544;46.760;15.942;2024-03-25T03:48:45;2.53;;;1.95;;
24411;SDS011;12544;46.760;15.942;2024-03-25T03:51:11;2.53;;;1.80;;
24411;SDS011;12544;46.760;15.942;2024-03-25T03:53:36;2.13;;;1.77;;
24411;SDS011;12544;46.760;15.942;2024-03-25T03:56:03;2.25;;;1.60;;
24411;SDS011;12544;46.760;15.942;2024-03-25T03:58:30;4.15;;;1.70;;
24411;SDS011;12544;46.760;15.942;2024-03-25T04:00:56;3.60;;;2.00;;
24411;SDS011;12544;46.760;15.942;2024-03-25T04:03:22;2.80;;;2.42;;
24411;SDS011;12544;46.760;15.942;2024-03-25T04:05:48;4.15;;;3.08;;
24411;SDS011;12544;46.760;15.942;2024-03-25T04:08:14;2.63;;;2.35;;
24411;SDS011;12544;46.760;15.942;2024-03-25T04:10:40;2.42;;;1.92;;
24411;SDS011;12544;46.760;15.942;2024-03-25T04:13:06;4.50;;;1.90;;
24411;SDS011;12544;46.760;15.942;2024-03-25T04:15:36;2.35;;;2.00;;
24411;SDS011;12544;46.760;15.942;2024-03-25T04:18:06;2.53;;;1.65;;
24411;SDS011;12544;46.760;15.942;2024-03-25T04:20:38;2.55;;;2.35;;
24411;SDS011;12544;46.760;15.942;2024-03-25T04:23:05;4.55;;;2.55;;
24411;SDS011;12544;46.760;15.942;2024-03-25T04:25:32;2.97;;;2.60;;
24411;SDS011;12544;46.760;15.942;2024-03-25T04:27:59;3.90;;;3.10;;
24411;SDS011;12544;46.760;15.942;2024-03-25T04:30:24;3.65;;;3.03;;
24411;SDS011;12544;46.760;15.942;2024-03-25T04:32:50;5.05;;;2.95;;
24411;SDS011;12544;46.760;15.942;2024-03-25T04:35:16;4.95;;;3.10;;
24411;SDS011;12544;46.760;15.942;2024-03-25T04:37:42;4.45;;;3.17;;
24411;SDS011;12544;46.760;15.942;2024-03-25T04:40:08;4.53;;;3.30;;
24411;SDS011;12544;46.760;15.942;2024-03-25T04:42:35;4.65;;;3.25;;
24411;SDS011;12544;46.760;15.942;2024-03-25T04:45:01;4.35;;;2.90;;
24411;SDS011;12544;46.760;15.942;2024-03-25T04:47:26;3.70;;;2.88;;
24411;SDS011;12544;46.760;15.942;2024-03-25T04:49:52;2.92;;;2.65;;
24411;SDS011;12544;46.760;15.942;2024-03-25T04:52:18;3.55;;;2.92;;
24411;SDS011;12544;46.760;15.942;2024-03-25T04:54:43;4.30;;;3.10;;
24411;SDS011;12544;46.760;15.942;2024-03-25T04:57:09;3.78;;;2.67;;
24411;SDS011;12544;46.760;15.942;2024-03-25T04:59:35;5.35;;;3.53;;
24411;SDS011;12544;46.760;15.942;2024-03-25T05:02:01;4.28;;;2.40;;
24411;SDS011;12544;46.760;15.942;2024-03-25T05:04:27;3.22;;;2.50;;
24411;SDS011;12544;46.760;15.942;2024-03-25T05:06:52;3.20;;;2.60;;
24411;SDS011;12544;46.760;15.942;2024-03-25T05:09:18;4.65;;;2.60;;
24411;SDS011;12544;46.760;15.942;2024-03-25T05:11:45;2.10;;;1.90;;
24411;SDS011;12544;46.760;15.942;2024-03-25T05:14:10;2.40;;;2.20;;
24411;SDS011;12544;46.760;15.942;2024-03-25T05:16:36;2.63;;;2.42;;
24411;SDS011;12544;46.760;15.942;2024-03-25T05:19:02;4.65;;;2.97;;
24411;SDS011;12544;46.760;15.942;2024-03-25T05:21:29;3.90;;;3.60;;
24411;SDS011;12544;46.760;15.942;2024-03-25T05:23:58;3.40;;;3.10;;
24411;SDS011;12544;46.760;15.942;2024-03-25T05:26:24;5.03;;;3.60;;
24411;SDS011;12544;46.760;15.942;2024-03-25T05:28:56;4.28;;;3.60;;
24411;SDS011;12544;46.760;15.942;2024-03-25T05:31:22;4.65;;;4.07;;
24411;SDS011;12544;46.760;15.942;2024-03-25T05:33:48;5.18;;;4.20;;
24411;SDS011;12544;46.760;15.942;2024-03-25T05:36:15;4.97;;;3.90;;
24411;SDS011;12544;46.760;15.942;2024-03-25T05:38:40;2.53;;;2.30;;
24411;SDS011;12544;46.760;15.942;2024-03-25T05:41:09;4.10;;;2.72;;
24411;SDS011;12544;46.760;15.942;2024-03-25T05:43:35;3.53;;;2.65;;
24411;SDS011;12544;46.760;15.942;2024-03-25T05:46:01;4.05;;;3.55;;
24411;SDS011;12544;46.760;15.942;2024-03-25T05:48:27;3.63;;;3.33;;
24411;SDS011;12544;46.760;15.942;2024-03-25T05:51:27;4.82;;;3.08;;
24411;SDS011;12544;46.760;15.942;2024-03-25T05:53:45;3.83;;;3.38;;
24411;SDS011;12544;46.760;15.942;2024-03-25T05:56:11;4.97;;;3.50;;
24411;SDS011;12544;46.760;15.942;2024-03-25T05:58:36;4.40;;;3.22;;
24411;SDS011;12544;46.760;15.942;2024-03-25T06:01:02;4.25;;;3.42;;
24411;SDS011;12544;46.760;15.942;2024-03-25T06:03:29;4.32;;;3.42;;
24411;SDS011;12544;46.760;15.942;2024-03-25T06:05:55;6.78;;;4.43;;
24411;SDS011;12544;46.760;15.942;2024-03-25T06:08:20;4.18;;;3.75;;
24411;SDS011;12544;46.760;15.942;2024-03-25T06:11:00;6.07;;;4.80;;
24411;SDS011;12544;46.760;15.942;2024-03-25T06:13:26;7.50;;;3.90;;
24411;SDS011;12544;46.760;15.942;2024-03-25T06:15:52;4.10;;;3.60;;
24411;SDS011;12544;46.760;15.942;2024-03-25T06:18:18;4.00;;;3.60;;
24411;SDS011;12544;46.760;15.942;2024-03-25T06:20:44;5.38;;;4.00;;
24411;SDS011;12544;46.760;15.942;2024-03-25T06:23:10;4.85;;;4.05;;
24411;SDS011;12544;46.760;15.942;2024-03-25T06:25:36;5.28;;;4.78;;
24411;SDS011;12544;46.760;15.942;2024-03-25T06:28:02;5.13;;;4.60;;
24411;SDS011;12544;46.760;15.942;2024-03-25T06:30:28;6.13;;;3.88;;
24411;SDS011;12544;46.760;15.942;2024-03-25T06:33:12;7.07;;;4.05;;
24411;SDS011;12544;46.760;15.942;2024-03-25T06:35:57;5.60;;;5.10;;
24411;SDS011;12544;46.760;15.942;2024-03-25T06:38:23;4.68;;;3.88;;
24411;SDS011;12544;46.760;15.942;2024-03-25T06:40:48;4.35;;;3.80;;
24411;SDS011;12544;46.760;15.942;2024-03-25T06:43:16;7.05;;;4.03;;
24411;SDS011;12544;46.760;15.942;2024-03-25T06:45:43;5.82;;;4.10;;
24411;SDS011;12544;46.760;15.942;2024-03-25T06:48:09;4.15;;;3.65;;
24411;SDS011;12544;46.760;15.942;2024-03-25T06:50:35;4.53;;;4.03;;
24411;SDS011;12544;46.760;15.942;2024-03-25T06:53:01;4.20;;;3.30;;
24411;SDS011;12544;46.760;15.942;2024-03-25T06:55:27;3.95;;;3.65;;
24411;SDS011;12544;46.760;15.942;2024-03-25T06:57:53;4.45;;;3.97;;
24411;SDS011;12544;46.760;15.942;2024-03-25T07:00:19;4.32;;;3.95;;
24411;SDS011;12544;46.760;15.942;2024-03-25T07:02:47;4.40;;;3.60;;
24411;SDS011;12544;46.760;15.942;2024-03-25T07:05:13;5.28;;;3.40;;
24411;SDS011;12544;46.760;15.942;2024-03-25T07:07:39;4.22;;;3.60;;
24411;SDS011;12544;46.760;15.942;2024-03-25T07:10:04;3.97;;;3.58;;
24411;SDS011;12544;46.760;15.942;2024-03-25T07:12:30;4.15;;;3.75;;
24411;SDS011;12544;46.760;15.942;2024-03-25T07:14:56;3.03;;;2.70;;
24411;SDS011;12544;46.760;15.942;2024-03-25T07:17:21;4.47;;;3.17;;
24411;SDS011;12544;46.760;15.942;2024-03-25T07:19:47;3.22;;;2.83;;
24411;SDS011;12544;46.760;15.942;2024-03-25T07:22:13;3.00;;;2.70;;
24411;SDS011;12544;46.760;15.942;2024-03-25T07:24:39;4.05;;;2.88;;
24411;SDS011;12544;46.760;15.942;2024-03-25T07:27:04;3.42;;;3.13;;
24411;SDS011;12544;46.760;15.942;2024-03-25T07:29:30;3.47;;;2.70;;
24411;SDS011;12544;46.760;15.942;2024-03-25T07:31:56;2.95;;;2.33;;
24411;SDS011;12544;46.760;15.942;2024-03-25T07:34:22;3.20;;;2.60;;
24411;SDS011;12544;46.760;15.942;2024-03-25T07:36:47;2.67;;;2.03;;
24411;SDS011;12544;46.760;15.942;2024-03-25T07:39:14;3.67;;;2.25;;
24411;SDS011;12544;46.760;15.942;2024-03-25T07:41:39;2.22;;;1.92;;
24411;SDS011;12544;46.760;15.942;2024-03-25T07:44:05;2.55;;;2.00;;
24411;SDS011;12544;46.760;15.942;2024-03-25T07:46:31;2.60;;;2.22;;
24411;SDS011;12544;46.760;15.942;2024-03-25T07:48:56;3.00;;;1.58;;
24411;SDS011;12544;46.760;15.942;2024-03-25T07:51:22;2.90;;;1.73;;
24411;SDS011;12544;46.760;15.942;2024-03-25T07:53:48;2.65;;;1.67;;
24411;SDS011;12544;46.760;15.942;2024-03-25T07:56:17;5.43;;;1.60;;
24411;SDS011;12544;46.760;15.942;2024-03-25T07:58:42;1.90;;;1.70;;
24411;SDS011;12544;46.760;15.942;2024-03-25T08:01:08;1.50;;;1.40;;
24411;SDS011;12544;46.760;15.942;2024-03-25T08:03:34;1.88;;;1.55;;
24411;SDS011;12544;46.760;15.942;2024-03-25T08:05:59;2.70;;;1.90;;
24411;SDS011;12544;46.760;15.942;2024-03-25T08:08:25;2.65;;;1.70;;
24411;SDS011;12544;46.760;15.942;2024-03-25T08:10:51;2.63;;;1.60;;
24411;SDS011;12544;46.760;15.942;2024-03-25T08:13:17;2.50;;;1.77;;
24411;SDS011;12544;46.760;15.942;2024-03-25T08:15:45;2.17;;;1.85;;
24411;SDS011;12544;46.760;15.942;2024-03-25T08:18:10;2.22;;;1.73;;
24411;SDS011;12544;46.760;15.942;2024-03-25T08:20:37;1.75;;;1.65;;
24411;SDS011;12544;46.760;15.942;2024-03-25T08:23:02;2.05;;;1.40;;
24411;SDS011;12544;46.760;15.942;2024-03-25T08:25:28;2.63;;;1.60;;
24411;SDS011;12544;46.760;15.942;2024-03-25T08:27:54;1.77;;;1.35;;
24411;SDS011;12544;46.760;15.942;2024-03-25T08:30:19;2.38;;;1.30;;
24411;SDS011;12544;46.760;15.942;2024-03-25T08:32:45;2.90;;;1.80;;
24411;SDS011;12544;46.760;15.942;2024-03-25T08:35:11;1.73;;;1.60;;
24411;SDS011;12544;46.760;15.942;2024-03-25T08:37:36;1.50;;;1.40;;
24411;SDS011;12544;46.760;15.942;2024-03-25T08:40:02;1.73;;;1.63;;
24411;SDS011;12544;46.760;15.942;2024-03-25T08:42:29;2.08;;;1.48;;
24411;SDS011;12544;46.760;15.942;2024-03-25T08:44:55;1.98;;;1.40;;
24411;SDS011;12544;46.760;15.942;2024-03-25T08:47:21;1.65;;;1.27;;
24411;SDS011;12544;46.760;15.942;2024-03-25T08:49:47;3.28;;;1.50;;
24411;SDS011;12544;46.760;15.942;2024-03-25T08:52:13;1.35;;;1.25;;
24411;SDS011;12544;46.760;15.942;2024-03-25T08:54:38;1.10;;;1.00;;
24411;SDS011;12544;46.760;15.942;2024-03-25T08:57:04;1.27;;;1.00;;
24411;SDS011;12544;46.760;15.942;2024-03-25T08:59:29;1.15;;;1.00;;
24411;SDS011;12544;46.760;15.942;2024-03-25T09:01:55;1.13;;;1.00;;
24411;SDS011;12544;46.760;15.942;2024-03-25T09:04:20;1.30;;;1.10;;
24411;SDS011;12544;46.760;15.942;2024-03-25T09:06:46;1.60;;;1.17;;
24411;SDS011;12544;46.760;15.942;2024-03-25T09:09:12;2.33;;;1.10;;
24411;SDS011;12544;46.760;15.942;2024-03-25T09:11:57;1.30;;;0.90;;
24411;SDS011;12544;46.760;15.942;2024-03-25T09:14:22;1.40;;;1.30;;
24411;SDS011;12544;46.760;15.942;2024-03-25T09:16:48;1.20;;;0.98;;
24411;SDS011;12544;46.760;15.942;2024-03-25T09:19:13;1.15;;;1.10;;
24411;SDS011;12544;46.760;15.942;2024-03-25T09:21:39;1.10;;;1.00;;
24411;SDS011;12544;46.760;15.942;2024-03-25T09:24:05;1.23;;;1.10;;
24411;SDS011;12544;46.760;15.942;2024-03-25T09:26:30;1.20;;;1.00;;
24411;SDS011;12544;46.760;15.942;2024-03-25T09:28:56;2.42;;;0.90;;
24411;SDS011;12544;46.760;15.942;2024-03-25T09:34:44;2.25;;;1.30;;
24411;SDS011;12544;46.760;15.942;2024-03-25T09:37:12;1.13;;;0.90;;
24411;SDS011;12544;46.760;15.942;2024-03-25T09:39:38;0.82;;;0.80;;
24411;SDS011;12544;46.760;15.942;2024-03-25T09:42:03;0.70;;;0.60;;
24411;SDS011;12544;46.760;15.942;2024-03-25T09:44:33;1.13;;;0.65;;
24411;SDS011;12544;46.760;15.942;2024-03-25T09:46:58;0.68;;;0.60;;
24411;SDS011;12544;46.760;15.942;2024-03-25T09:49:25;0.50;;;0.50;;
24411;SDS011;12544;46.760;15.942;2024-03-25T09:51:53;0.73;;;0.70;;
24411;SDS011;12544;46.760;15.942;2024-03-25T09:54:18;0.65;;;0.50;;
24411;SDS011;12544;46.760;15.942;2024-03-25T09:56:44;0.90;;;0.70;;
24411;SDS011;12544;46.760;15.942;2024-03-25T09:59:10;0.60;;;0.60;;
24411;SDS011;12544;46.760;15.942;2024-03-25T10:01:37;0.50;;;0.50;;
24411;SDS011;12544;46.760;15.942;2024-03-25T10:04:02;0.50;;;0.50;;
24411;SDS011;12544;46.760;15.942;2024-03-25T10:06:28;0.55;;;0.55;;
24411;SDS011;12544;46.760;15.942;2024-03-25T10:08:54;0.60;;;0.60;;
24411;SDS011;12544;46.760;15.942;2024-03-25T10:11:22;0.60;;;0.60;;
24411;SDS011;12544;46.760;15.942;2024-03-25T10:13:47;0.50;;;0.50;;
24411;SDS011;12544;46.760;15.942;2024-03-25T10:19:35;0.60;;;0.60;;
24411;SDS011;12544;46.760;15.942;2024-03-25T10:22:04;0.60;;;0.60;;
24411;SDS011;12544;46.760;15.942;2024-03-25T10:24:41;0.65;;;0.65;;
24411;SDS011;12544;46.760;15.942;2024-03-25T10:27:10;0.50;;;0.50;;
24411;SDS011;12544;46.760;15.942;2024-03-25T10:29:46;0.90;;;0.90;;
24411;SDS011;12544;46.760;15.942;2024-03-25T10:32:13;0.70;;;0.70;;
24411;SDS011;12544;46.760;15.942;2024-03-25T10:34:39;0.98;;;0.60;;
24411;SDS011;12544;46.760;15.942;2024-03-25T10:37:05;0.60;;;0.60;;
24411;SDS011;12544;46.760;15.942;2024-03-25T10:39:34;0.60;;;0.60;;
24411;SDS011;12544;46.760;15.942;2024-03-25T10:42:08;0.70;;;0.70;;
24411;SDS011;12544;46.760;15.942;2024-03-25T10:44:38;0.70;;;0.70;;
24411;SDS011;12544;46.760;15.942;2024-03-25T10:47:04;0.73;;;0.60;;
24411;SDS011;12544;46.760;15.942;2024-03-25T10:49:43;0.57;;;0.55;;
24411;SDS011;12544;46.760;15.942;2024-03-25T10:52:13;0.60;;;0.60;;
24411;SDS011;12544;46.760;15.942;2024-03-25T10:54:40;0.50;;;0.50;;
24411;SDS011;12544;46.760;15.942;2024-03-25T10:57:07;0.50;;;0.50;;
24411;SDS011;12544;46.760;15.942;2024-03-25T10:59:35;0.60;;;0.60;;
24411;SDS011;12544;46.760;15.942;2024-03-25T11:02:06;1.38;;;0.80;;
24411;SDS011;12544;46.760;15.942;2024-03-25T11:04:35;0.60;;;0.60;;
24411;SDS011;12544;46.760;15.942;2024-03-25T11:07:14;0.60;;;0.60;;
24411;SDS011;12544;46.760;15.942;2024-03-25T11:09:41;0.75;;;0.70;;
24411;SDS011;12544;46.760;15.942;2024-03-25T11:15:12;0.70;;;0.68;;
24411;SDS011;12544;46.760;15.942;2024-03-25T11:17:37;1.15;;;0.70;;
24411;SDS011;12544;46.760;15.942;2024-03-25T11:20:15;0.60;;;0.60;;
24411;SDS011;12544;46.760;15.942;2024-03-25T11:22:50;0.73;;;0.63;;
24411;SDS011;12544;46.760;15.942;2024-03-25T11:25:17;0.75;;;0.60;;
24411;SDS011;12544;46.760;15.942;2024-03-25T11:27:45;0.70;;;0.70;;
24411;SDS011;12544;46.760;15.942;2024-03-25T11:30:15;0.50;;;0.50;;
24411;SDS011;12544;46.760;15.942;2024-03-25T11:32:44;0.60;;;0.60;;
24411;SDS011;12544;46.760;15.942;2024-03-25T11:35:19;0.88;;;0.60;;
24411;SDS011;12544;46.760;15.942;2024-03-25T11:37:45;0.60;;;0.60;;
24411;SDS011;12544;46.760;15.942;2024-03-25T11:40:11;1.08;;;0.60;;
24411;SDS011;12544;46.760;15.942;2024-03-25T11:42:39;1.25;;;0.70;;
24411;SDS011;12544;46.760;15.942;2024-03-25T11:48:28;0.68;;;0.60;;
24411;SDS011;12544;46.760;15.942;2024-03-25T11:50:54;0.60;;;0.60;;
24411;SDS011;12544;46.760;15.942;2024-03-25T11:53:20;0.63;;;0.60;;
24411;SDS011;12544;46.760;15.942;2024-03-25T11:55:46;0.57;;;0.57;;
24411;SDS011;12544;46.760;15.942;2024-03-25T11:58:13;0.60;;;0.60;;
24411;SDS011;12544;46.760;15.942;2024-03-25T12:00:45;0.60;;;0.60;;
24411;SDS011;12544;46.760;15.942;2024-03-25T12:03:14;0.63;;;0.63;;
24411;SDS011;12544;46.760;15.942;2024-03-25T12:05:41;0.57;;;0.50;;
24411;SDS011;12544;46.760;15.942;2024-03-25T12:08:08;0.70;;;0.70;;
24411;SDS011;12544;46.760;15.942;2024-03-25T12:10:35;0.60;;;0.60;;
24411;SDS011;12544;46.760;15.942;2024-03-25T12:13:20;0.57;;;0.57;;
24411;SDS011;12544;46.760;15.942;2024-03-25T12:15:46;0.93;;;0.60;;
24411;SDS011;12544;46.760;15.942;2024-03-25T12:21:35;1.23;;;0.65;;
24411;SDS011;12544;46.760;15.942;2024-03-25T12:24:02;0.85;;;0.60;;
24411;SDS011;12544;46.760;15.942;2024-03-25T12:26:28;0.77;;;0.75;;
24411;SDS011;12544;46.760;15.942;2024-03-25T12:28:57;0.60;;;0.60;;
24411;SDS011;12544;46.760;15.942;2024-03-25T12:31:23;0.70;;;0.70;;
24411;SDS011;12544;46.760;15.942;2024-03-25T12:33:49;0.65;;;0.65;;
24411;SDS011;12544;46.760;15.942;2024-03-25T12:36:15;0.65;;;0.65;;
24411;SDS011;12544;46.760;15.942;2024-03-25T12:38:41;0.85;;;0.70;;
24411;SDS011;12544;46.760;15.942;2024-03-25T12:41:10;0.50;;;0.50;;
24411;SDS011;12544;46.760;15.942;2024-03-25T12:43:41;0.60;;;0.60;;
24411;SDS011;12544;46.760;15.942;2024-03-25T12:46:08;0.68;;;0.68;;
24411;SDS011;12544;46.760;15.942;2024-03-25T12:48:34;0.80;;;0.80;;
24411;SDS011;12544;46.760;15.942;2024-03-25T12:51:01;0.70;;;0.70;;
24411;SDS011;12544;46.760;15.942;2024-03-25T12:53:26;0.75;;;0.60;;
24411;SDS011;12544;46.760;15.942;2024-03-25T12:55:52;0.70;;;0.70;;
24411;SDS011;12544;46.760;15.942;2024-03-25T12:58:18;0.77;;;0.77;;
24411;SDS011;12544;46.760;15.942;2024-03-25T13:00:43;3.05;;;0.70;;
24411;SDS011;12544;46.760;15.942;2024-03-25T13:03:09;0.70;;;0.60;;
24411;SDS011;12544;46.760;15.942;2024-03-25T13:05:36;1.42;;;0.70;;
24411;SDS011;12544;46.760;15.942;2024-03-25T13:08:01;0.70;;;0.70;;
24411;SDS011;12544;46.760;15.942;2024-03-25T13:10:28;0.57;;;0.57;;
24411;SDS011;12544;46.760;15.942;2024-03-25T13:12:55;0.60;;;0.60;;
24411;SDS011;12544;46.760;15.942;2024-03-25T13:15:21;0.80;;;0.80;;
24411;SDS011;12544;46.760;15.942;2024-03-25T13:17:46;0.70;;;0.70;;
24411;SDS011;12544;46.760;15.942;2024-03-25T13:20:12;0.60;;;0.60;;
24411;SDS011;12544;46.760;15.942;2024-03-25T13:22:38;0.70;;;0.70;;
24411;SDS011;12544;46.760;15.942;2024-03-25T13:27:33;0.90;;;0.80;;
24411;SDS011;12544;46.760;15.942;2024-03-25T13:29:59;0.73;;;0.70;;
24411;SDS011;12544;46.760;15.942;2024-03-25T13:32:25;0.73;;;0.73;;
24411;SDS011;12544;46.760;15.942;2024-03-25T13:34:51;0.70;;;0.70;;
24411;SDS011;12544;46.760;15.942;2024-03-25T13:37:16;0.70;;;0.70;;
24411;SDS011;12544;46.760;15.942;2024-03-25T13:39:42;0.70;;;0.70;;
24411;SDS011;12544;46.760;15.942;2024-03-25T13:42:08;0.77;;;0.68;;
24411;SDS011;12544;46.760;15.942;2024-03-25T13:44:33;1.52;;;0.85;;
24411;SDS011;12544;46.760;15.942;2024-03-25T13:46:59;1.77;;;0.80;;
24411;SDS011;12544;46.760;15.942;2024-03-25T13:49:24;0.88;;;0.88;;
24411;SDS011;12544;46.760;15.942;2024-03-25T13:51:56;0.65;;;0.65;;
24411;SDS011;12544;46.760;15.942;2024-03-25T13:54:29;0.70;;;0.70;;
24411;SDS011;12544;46.760;15.942;2024-03-25T13:56:55;1.55;;;0.70;;
24411;SDS011;12544;46.760;15.942;2024-03-25T13:59:21;0.70;;;0.70;;
24411;SDS011;12544;46.760;15.942;2024-03-25T14:01:47;0.70;;;0.70;;
24411;SDS011;12544;46.760;15.942;2024-03-25T14:04:13;0.80;;;0.80;;
24411;SDS011;12544;46.760;15.942;2024-03-25T14:06:38;0.70;;;0.70;;
24411;SDS011;12544;46.760;15.942;2024-03-25T14:09:05;0.50;;;0.50;;
24411;SDS011;12544;46.760;15.942;2024-03-25T14:11:34;0.68;;;0.68;;
24411;SDS011;12544;46.760;15.942;2024-03-25T14:14:00;1.60;;;0.80;;
24411;SDS011;12544;46.760;15.942;2024-03-25T14:16:26;1.20;;;0.98;;
24411;SDS011;12544;46.760;15.942;2024-03-25T14:18:52;0.70;;;0.70;;
24411;SDS011;12544;46.760;15.942;2024-03-25T14:21:17;0.70;;;0.70;;
24411;SDS011;12544;46.760;15.942;2024-03-25T14:23:43;1.02;;;0.70;;
24411;SDS011;12544;46.760;15.942;2024-03-25T14:26:10;0.73;;;0.73;;
24411;SDS011;12544;46.760;15.942;2024-03-25T14:28:37;1.25;;;0.60;;
24411;SDS011;12544;46.760;15.942;2024-03-25T14:31:02;1.00;;;0.70;;
24411;SDS011;12544;46.760;15.942;2024-03-25T14:33:29;0.70;;;0.70;;
24411;SDS011;12544;46.760;15.942;2024-03-25T14:35:54;0.63;;;0.63;;
24411;SDS011;12544;46.760;15.942;2024-03-25T14:38:20;0.70;;;0.70;;
24411;SDS011;12544;46.760;15.942;2024-03-25T14:40:46;2.95;;;0.77;;
24411;SDS011;12544;46.760;15.942;2024-03-25T14:43:12;0.60;;;0.60;;
24411;SDS011;12544;46.760;15.942;2024-03-25T14:45:38;1.27;;;0.60;;
24411;SDS011;12544;46.760;15.942;2024-03-25T14:48:04;0.70;;;0.70;;
24411;SDS011;12544;46.760;15.942;2024-03-25T14:50:30;0.82;;;0.70;;
24411;SDS011;12544;46.760;15.942;2024-03-25T14:52:55;0.50;;;0.50;;